sensor_id;sensor_type;location;lat;lon;timestamp;temperature;humidity
16825;DHT22;8529;48.108;-1.706;2023-08-24T00:00:18;23.40;99.90
16825;DHT22;8529;48.108;-1.706;2023-08-24T00:02:46;23.40;99.90
16825;DHT22;8529;48.108;-1.706;2023-08-24T00:05:13;23.40;99.90
16825;DHT22;8529;48.108;-1.706;2023-08-24T00:07:40;23.40;99.90
16825;DHT22;8529;48.108;-1.706;2023-08-24T00:10:08;23.40;99.90
16825;DHT22;8529;48.108;-1.706;2023-08-24T00:12:35;23.30;99.90
16825;DHT22;8529;48.108;-1.706;2023-08-24T00:15:02;23.30;99.90
16825;DHT22;8529;48.108;-1.706;2023-08-24T00:17:29;23.30;99.90
16825;DHT22;8529;48.108;-1.706;2023-08-24T00:19:58;23.30;99.90
16825;DHT22;8529;48.108;-1.706;2023-08-24T00:22:25;23.30;99.90
16825;DHT22;8529;48.108;-1.706;2023-08-24T00:24:52;23.30;99.90
16825;DHT22;8529;48.108;-1.706;2023-08-24T00:27:18;23.30;99.90
16825;DHT22;8529;48.108;-1.706;2023-08-24T00:29:45;23.30;99.90
16825;DHT22;8529;48.108;-1.706;2023-08-24T00:32:12;23.20;99.90
16825;DHT22;8529;48.108;-1.706;2023-08-24T00:34:39;23.20;99.90
16825;DHT22;8529;48.108;-1.706;2023-08-24T00:37:07;23.20;99.90
16825;DHT22;8529;48.108;-1.706;2023-08-24T00:39:34;23.20;99.90
16825;DHT22;8529;48.108;-1.706;2023-08-24T00:42:01;23.20;99.90
16825;DHT22;8529;48.108;-1.706;2023-08-24T00:44:28;23.20;99.90
16825;DHT22;8529;48.108;-1.706;2023-08-24T00:46:55;23.20;99.90
16825;DHT22;8529;48.108;-1.706;2023-08-24T00:49:22;23.20;99.90
16825;DHT22;8529;48.108;-1.706;2023-08-24T00:51:49;23.20;99.90
16825;DHT22;8529;48.108;-1.706;2023-08-24T00:54:18;23.20;99.90
16825;DHT22;8529;48.108;-1.706;2023-08-24T00:56:45;23.20;99.90
16825;DHT22;8529;48.108;-1.706;2023-08-24T00:59:12;23.20;99.90
16825;DHT22;8529;48.108;-1.706;2023-08-24T01:01:41;23.20;99.90
16825;DHT22;8529;48.108;-1.706;2023-08-24T01:04:10;23.20;99.90
16825;DHT22;8529;48.108;-1.706;2023-08-24T01:06:37;23.10;99.90
16825;DHT22;8529;48.108;-1.706;2023-08-24T01:09:04;23.10;99.90
16825;DHT22;8529;48.108;-1.706;2023-08-24T01:11:48;23.10;99.90
16825;DHT22;8529;48.108;-1.706;2023-08-24T01:14:23;23.10;99.90
16825;DHT22;8529;48.108;-1.706;2023-08-24T01:16:54;23.20;99.90
16825;DHT22;8529;48.108;-1.706;2023-08-24T01:19:36;23.20;99.90
16825;DHT22;8529;48.108;-1.706;2023-08-24T01:22:08;23.20;99.90
16825;DHT22;8529;48.108;-1.706;2023-08-24T01:24:49;23.20;99.90
16825;DHT22;8529;48.108;-1.706;2023-08-24T01:27:21;23.20;99.90
16825;DHT22;8529;48.108;-1.706;2023-08-24T01:29:48;23.20;99.90
16825;DHT22;8529;48.108;-1.706;2023-08-24T01:32:15;23.20;99.90
16825;DHT22;8529;48.108;-1.706;2023-08-24T01:34:43;23.20;99.90
16825;DHT22;8529;48.108;-1.706;2023-08-24T01:37:10;23.20;99.90
16825;DHT22;8529;48.108;-1.706;2023-08-24T01:39:42;23.20;99.90
16825;DHT22;8529;48.108;-1.706;2023-08-24T01:42:16;23.20;99.90
16825;DHT22;8529;48.108;-1.706;2023-08-24T01:44:49;23.30;99.90
16825;DHT22;8529;48.108;-1.706;2023-08-24T01:47:17;23.20;99.90
16825;DHT22;8529;48.108;-1.706;2023-08-24T01:49:45;23.20;99.90
16825;DHT22;8529;48.108;-1.706;2023-08-24T01:52:12;23.20;99.90
16825;DHT22;8529;48.108;-1.706;2023-08-24T01:54:40;23.20;99.90
16825;DHT22;8529;48.108;-1.706;2023-08-24T01:57:07;23.20;99.90
16825;DHT22;8529;48.108;-1.706;2023-08-24T01:59:34;23.20;99.90
16825;DHT22;8529;48.108;-1.706;2023-08-24T02:02:02;23.20;99.90
16825;DHT22;8529;48.108;-1.706;2023-08-24T02:04:29;23.10;99.90
16825;DHT22;8529;48.108;-1.706;2023-08-24T02:06:56;23.10;99.90
16825;DHT22;8529;48.108;-1.706;2023-08-24T02:09:23;23.10;99.90
16825;DHT22;8529;48.108;-1.706;2023-08-24T02:11:50;23.20;99.90
16825;DHT22;8529;48.108;-1.706;2023-08-24T02:14:17;23.10;99.90
16825;DHT22;8529;48.108;-1.706;2023-08-24T02:16:44;23.10;99.90
16825;DHT22;8529;48.108;-1.706;2023-08-24T02:19:12;23.10;99.90
16825;DHT22;8529;48.108;-1.706;2023-08-24T02:21:39;23.10;99.90
16825;DHT22;8529;48.108;-1.706;2023-08-24T02:24:07;23.10;99.90
16825;DHT22;8529;48.108;-1.706;2023-08-24T02:26:33;23.10;99.90
16825;DHT22;8529;48.108;-1.706;2023-08-24T02:29:00;23.00;99.90
16825;DHT22;8529;48.108;-1.706;2023-08-24T02:31:28;23.00;99.90
16825;DHT22;8529;48.108;-1.706;2023-08-24T02:33:55;22.90;99.90
16825;DHT22;8529;48.108;-1.706;2023-08-24T02:36:23;22.90;99.90
16825;DHT22;8529;48.108;-1.706;2023-08-24T02:38:50;22.90;99.90
16825;DHT22;8529;48.108;-1.706;2023-08-24T02:41:17;22.90;99.90
16825;DHT22;8529;48.108;-1.706;2023-08-24T02:43:44;22.90;99.90
16825;DHT22;8529;48.108;-1.706;2023-08-24T02:46:12;22.90;99.90
16825;DHT22;8529;48.108;-1.706;2023-08-24T02:48:39;22.80;99.90
16825;DHT22;8529;48.108;-1.706;2023-08-24T02:51:07;22.80;99.90
16825;DHT22;8529;48.108;-1.706;2023-08-24T02:53:36;22.80;99.90
16825;DHT22;8529;48.108;-1.706;2023-08-24T02:56:03;22.80;99.90
16825;DHT22;8529;48.108;-1.706;2023-08-24T02:58:31;22.70;99.90
16825;DHT22;8529;48.108;-1.706;2023-08-24T03:00:58;22.70;99.90
16825;DHT22;8529;48.108;-1.706;2023-08-24T03:03:25;22.70;99.90
16825;DHT22;8529;48.108;-1.706;2023-08-24T03:05:58;22.70;99.90
16825;DHT22;8529;48.108;-1.706;2023-08-24T03:08:25;22.60;99.90
16825;DHT22;8529;48.108;-1.706;2023-08-24T03:10:53;22.50;99.90
16825;DHT22;8529;48.108;-1.706;2023-08-24T03:13:20;22.50;99.90
16825;DHT22;8529;48.108;-1.706;2023-08-24T03:15:47;22.40;99.90
16825;DHT22;8529;48.108;-1.706;2023-08-24T03:18:16;22.40;99.90
16825;DHT22;8529;48.108;-1.706;2023-08-24T03:20:44;22.30;99.90
16825;DHT22;8529;48.108;-1.706;2023-08-24T03:23:11;22.40;99.90
16825;DHT22;8529;48.108;-1.706;2023-08-24T03:25:39;22.40;99.90
16825;DHT22;8529;48.108;-1.706;2023-08-24T03:28:08;22.30;99.90
16825;DHT22;8529;48.108;-1.706;2023-08-24T03:30:36;22.30;99.90
16825;DHT22;8529;48.108;-1.706;2023-08-24T03:33:04;22.20;99.90
16825;DHT22;8529;48.108;-1.706;2023-08-24T03:35:32;22.20;99.90
16825;DHT22;8529;48.108;-1.706;2023-08-24T03:38:00;22.20;99.90
16825;DHT22;8529;48.108;-1.706;2023-08-24T03:40:26;22.20;99.90
16825;DHT22;8529;48.108;-1.706;2023-08-24T03:42:53;22.20;99.90
16825;DHT22;8529;48.108;-1.706;2023-08-24T03:45:22;22.20;99.90
16825;DHT22;8529;48.108;-1.706;2023-08-24T03:47:49;22.20;99.90
16825;DHT22;8529;48.108;-1.706;2023-08-24T03:50:16;22.20;99.90
16825;DHT22;8529;48.108;-1.706;2023-08-24T03:52:44;22.20;99.90
16825;DHT22;8529;48.108;-1.706;2023-08-24T03:55:11;22.20;99.90
16825;DHT22;8529;48.108;-1.706;2023-08-24T03:57:38;22.30;99.90
16825;DHT22;8529;48.108;-1.706;2023-08-24T04:00:06;22.30;99.90
16825;DHT22;8529;48.108;-1.706;2023-08-24T04:02:38;22.30;99.90
16825;DHT22;8529;48.108;-1.706;2023-08-24T04:05:05;22.30;99.90
16825;DHT22;8529;48.108;-1.706;2023-08-24T04:07:32;22.30;99.90
16825;DHT22;8529;48.108;-1.706;2023-08-24T04:10:02;22.30;99.90
16825;DHT22;8529;48.108;-1.706;2023-08-24T04:12:30;22.20;99.90
16825;DHT22;8529;48.108;-1.706;2023-08-24T04:14:57;22.20;99.90
16825;DHT22;8529;48.108;-1.706;2023-08-24T04:17:24;22.20;99.90
16825;DHT22;8529;48.108;-1.706;2023-08-24T04:19:52;22.20;99.90
16825;DHT22;8529;48.108;-1.706;2023-08-24T04:22:19;22.20;99.90
16825;DHT22;8529;48.108;-1.706;2023-08-24T04:24:46;22.20;99.90
16825;DHT22;8529;48.108;-1.706;2023-08-24T04:27:13;22.20;99.90
16825;DHT22;8529;48.108;-1.706;2023-08-24T04:29:39;22.20;99.90
16825;DHT22;8529;48.108;-1.706;2023-08-24T04:32:06;22.20;99.90
16825;DHT22;8529;48.108;-1.706;2023-08-24T04:34:33;22.30;99.90
16825;DHT22;8529;48.108;-1.706;2023-08-24T04:37:02;22.20;99.90
16825;DHT22;8529;48.108;-1.706;2023-08-24T04:39:28;22.30;99.90
16825;DHT22;8529;48.108;-1.706;2023-08-24T04:41:56;22.20;99.90
16825;DHT22;8529;48.108;-1.706;2023-08-24T04:44:23;22.20;99.90
16825;DHT22;8529;48.108;-1.706;2023-08-24T04:46:50;22.20;99.90
16825;DHT22;8529;48.108;-1.706;2023-08-24T04:49:17;22.20;99.90
16825;DHT22;8529;48.108;-1.706;2023-08-24T04:51:44;22.20;99.90
16825;DHT22;8529;48.108;-1.706;2023-08-24T04:54:12;22.20;99.90
16825;DHT22;8529;48.108;-1.706;2023-08-24T04:56:39;22.20;99.90
16825;DHT22;8529;48.108;-1.706;2023-08-24T04:59:06;22.20;99.90
16825;DHT22;8529;48.108;-1.706;2023-08-24T05:01:33;22.20;99.90
16825;DHT22;8529;48.108;-1.706;2023-08-24T05:04:00;22.20;99.90
16825;DHT22;8529;48.108;-1.706;2023-08-24T05:06:27;22.20;99.90
16825;DHT22;8529;48.108;-1.706;2023-08-24T05:08:54;22.10;99.90
16825;DHT22;8529;48.108;-1.706;2023-08-24T05:11:26;22.20;99.90
16825;DHT22;8529;48.108;-1.706;2023-08-24T05:13:54;22.10;99.90
16825;DHT22;8529;48.108;-1.706;2023-08-24T05:16:22;22.10;99.90
16825;DHT22;8529;48.108;-1.706;2023-08-24T05:18:48;22.10;99.90
16825;DHT22;8529;48.108;-1.706;2023-08-24T05:21:15;22.10;99.90
16825;DHT22;8529;48.108;-1.706;2023-08-24T05:23:43;22.10;99.90
16825;DHT22;8529;48.108;-1.706;2023-08-24T05:26:10;22.10;99.90
16825;DHT22;8529;48.108;-1.706;2023-08-24T05:28:38;22.10;99.90
16825;DHT22;8529;48.108;-1.706;2023-08-24T05:31:05;22.10;99.90
16825;DHT22;8529;48.108;-1.706;2023-08-24T05:33:32;22.10;99.90
16825;DHT22;8529;48.108;-1.706;2023-08-24T05:35:59;22.10;99.90
16825;DHT22;8529;48.108;-1.706;2023-08-24T05:38:26;22.10;99.90
16825;DHT22;8529;48.108;-1.706;2023-08-24T05:40:53;22.10;99.90
16825;DHT22;8529;48.108;-1.706;2023-08-24T05:43:20;22.10;99.90
16825;DHT22;8529;48.108;-1.706;2023-08-24T05:45:48;22.10;99.90
16825;DHT22;8529;48.108;-1.706;2023-08-24T05:48:15;22.10;99.90
16825;DHT22;8529;48.108;-1.706;2023-08-24T05:50:44;22.20;99.90
16825;DHT22;8529;48.108;-1.706;2023-08-24T05:53:11;22.20;99.90
16825;DHT22;8529;48.108;-1.706;2023-08-24T05:55:38;22.20;99.90
16825;DHT22;8529;48.108;-1.706;2023-08-24T05:58:05;22.20;99.90
16825;DHT22;8529;48.108;-1.706;2023-08-24T06:00:32;22.30;99.90
16825;DHT22;8529;48.108;-1.706;2023-08-24T06:03:02;22.30;99.90
16825;DHT22;8529;48.108;-1.706;2023-08-24T06:05:30;22.30;99.90
16825;DHT22;8529;48.108;-1.706;2023-08-24T06:07:57;22.40;99.90
16825;DHT22;8529;48.108;-1.706;2023-08-24T06:10:24;22.40;99.90
16825;DHT22;8529;48.108;-1.706;2023-08-24T06:12:52;22.40;99.90
16825;DHT22;8529;48.108;-1.706;2023-08-24T06:15:19;22.40;99.90
16825;DHT22;8529;48.108;-1.706;2023-08-24T06:17:49;22.40;99.90
16825;DHT22;8529;48.108;-1.706;2023-08-24T06:20:19;22.50;99.90
16825;DHT22;8529;48.108;-1.706;2023-08-24T06:22:46;22.50;99.90
16825;DHT22;8529;48.108;-1.706;2023-08-24T06:25:12;22.50;99.90
16825;DHT22;8529;48.108;-1.706;2023-08-24T06:27:40;22.50;99.90
16825;DHT22;8529;48.108;-1.706;2023-08-24T06:30:07;22.50;99.90
16825;DHT22;8529;48.108;-1.706;2023-08-24T06:32:34;22.50;99.90
16825;DHT22;8529;48.108;-1.706;2023-08-24T06:35:02;22.50;99.90
16825;DHT22;8529;48.108;-1.706;2023-08-24T06:37:31;22.50;99.90
16825;DHT22;8529;48.108;-1.706;2023-08-24T06:39:58;22.50;99.90
16825;DHT22;8529;48.108;-1.706;2023-08-24T06:42:25;22.50;99.90
16825;DHT22;8529;48.108;-1.706;2023-08-24T06:44:52;22.50;99.90
16825;DHT22;8529;48.108;-1.706;2023-08-24T06:47:19;22.50;99.90
16825;DHT22;8529;48.108;-1.706;2023-08-24T06:49:45;22.50;99.90
16825;DHT22;8529;48.108;-1.706;2023-08-24T06:52:12;22.50;99.90
16825;DHT22;8529;48.108;-1.706;2023-08-24T06:54:40;22.40;99.90
16825;DHT22;8529;48.108;-1.706;2023-08-24T06:57:07;22.40;99.90
16825;DHT22;8529;48.108;-1.706;2023-08-24T06:59:35;22.40;99.90
16825;DHT22;8529;48.108;-1.706;2023-08-24T07:02:02;22.40;99.90
16825;DHT22;8529;48.108;-1.706;2023-08-24T07:04:29;22.40;99.90
16825;DHT22;8529;48.108;-1.706;2023-08-24T07:06:57;22.40;99.90
16825;DHT22;8529;48.108;-1.706;2023-08-24T07:09:23;22.30;99.90
16825;DHT22;8529;48.108;-1.706;2023-08-24T07:11:52;22.30;99.90
16825;DHT22;8529;48.108;-1.706;2023-08-24T07:14:19;22.30;99.90
16825;DHT22;8529;48.108;-1.706;2023-08-24T07:16:45;22.30;99.90
16825;DHT22;8529;48.108;-1.706;2023-08-24T07:19:12;22.30;99.90
16825;DHT22;8529;48.108;-1.706;2023-08-24T07:21:39;22.30;99.90
16825;DHT22;8529;48.108;-1.706;2023-08-24T07:24:06;22.30;99.90
16825;DHT22;8529;48.108;-1.706;2023-08-24T07:26:33;22.30;99.90
16825;DHT22;8529;48.108;-1.706;2023-08-24T07:29:01;22.30;99.90
16825;DHT22;8529;48.108;-1.706;2023-08-24T07:31:28;22.30;99.90
16825;DHT22;8529;48.108;-1.706;2023-08-24T07:33:55;22.20;99.90
16825;DHT22;8529;48.108;-1.706;2023-08-24T07:36:22;22.20;99.90
16825;DHT22;8529;48.108;-1.706;2023-08-24T07:38:49;22.20;99.90
16825;DHT22;8529;48.108;-1.706;2023-08-24T07:41:16;22.30;99.90
16825;DHT22;8529;48.108;-1.706;2023-08-24T07:43:44;22.20;99.90
16825;DHT22;8529;48.108;-1.706;2023-08-24T07:46:12;22.20;99.90
16825;DHT22;8529;48.108;-1.706;2023-08-24T07:48:39;22.20;99.90
16825;DHT22;8529;48.108;-1.706;2023-08-24T07:51:07;22.30;99.90
16825;DHT22;8529;48.108;-1.706;2023-08-24T07:53:34;22.30;99.90
16825;DHT22;8529;48.108;-1.706;2023-08-24T07:56:01;22.30;99.90
16825;DHT22;8529;48.108;-1.706;2023-08-24T07:58:28;22.30;99.90
16825;DHT22;8529;48.108;-1.706;2023-08-24T08:00:56;22.30;99.90
16825;DHT22;8529;48.108;-1.706;2023-08-24T08:03:25;22.30;99.90
16825;DHT22;8529;48.108;-1.706;2023-08-24T08:05:52;22.30;99.90
16825;DHT22;8529;48.108;-1.706;2023-08-24T08:08:20;22.40;99.90
16825;DHT22;8529;48.108;-1.706;2023-08-24T08:10:47;22.40;99.90
16825;DHT22;8529;48.108;-1.706;2023-08-24T08:13:14;22.40;99.90
16825;DHT22;8529;48.108;-1.706;2023-08-24T08:15:40;22.40;99.90
16825;DHT22;8529;48.108;-1.706;2023-08-24T08:18:07;22.40;99.90
16825;DHT22;8529;48.108;-1.706;2023-08-24T08:20:35;22.40;99.90
16825;DHT22;8529;48.108;-1.706;2023-08-24T08:23:03;22.40;99.90
16825;DHT22;8529;48.108;-1.706;2023-08-24T08:25:30;22.40;99.90
16825;DHT22;8529;48.108;-1.706;2023-08-24T08:27:56;22.40;99.90
16825;DHT22;8529;48.108;-1.706;2023-08-24T08:30:23;22.40;99.90
16825;DHT22;8529;48.108;-1.706;2023-08-24T08:32:50;22.40;99.90
16825;DHT22;8529;48.108;-1.706;2023-08-24T08:35:17;22.50;99.90
16825;DHT22;8529;48.108;-1.706;2023-08-24T08:37:46;22.50;99.90
16825;DHT22;8529;48.108;-1.706;2023-08-24T08:40:16;22.60;99.90
16825;DHT22;8529;48.108;-1.706;2023-08-24T08:42:43;22.60;99.90
16825;DHT22;8529;48.108;-1.706;2023-08-24T08:45:11;22.70;99.90
16825;DHT22;8529;48.108;-1.706;2023-08-24T08:47:38;22.70;99.90
16825;DHT22;8529;48.108;-1.706;2023-08-24T08:50:07;22.80;99.90
16825;DHT22;8529;48.108;-1.706;2023-08-24T08:52:35;22.80;99.90
16825;DHT22;8529;48.108;-1.706;2023-08-24T08:55:03;22.80;99.90
16825;DHT22;8529;48.108;-1.706;2023-08-24T08:57:32;22.80;99.90
16825;DHT22;8529;48.108;-1.706;2023-08-24T09:00:00;22.90;99.90
16825;DHT22;8529;48.108;-1.706;2023-08-24T09:02:29;22.90;99.90
16825;DHT22;8529;48.108;-1.706;2023-08-24T09:04:57;23.00;99.90
16825;DHT22;8529;48.108;-1.706;2023-08-24T09:07:24;23.00;99.90
16825;DHT22;8529;48.108;-1.706;2023-08-24T09:09:51;23.00;99.90
16825;DHT22;8529;48.108;-1.706;2023-08-24T09:12:20;23.10;99.90
16825;DHT22;8529;48.108;-1.706;2023-08-24T09:14:47;23.10;99.90
16825;DHT22;8529;48.108;-1.706;2023-08-24T09:17:20;23.10;99.90
16825;DHT22;8529;48.108;-1.706;2023-08-24T09:19:50;23.10;99.90
16825;DHT22;8529;48.108;-1.706;2023-08-24T09:22:17;23.00;99.90
16825;DHT22;8529;48.108;-1.706;2023-08-24T09:24:44;23.00;99.90
16825;DHT22;8529;48.108;-1.706;2023-08-24T09:27:16;23.00;99.90
16825;DHT22;8529;48.108;-1.706;2023-08-24T09:29:47;23.00;99.90
16825;DHT22;8529;48.108;-1.706;2023-08-24T09:32:15;22.90;99.90
16825;DHT22;8529;48.108;-1.706;2023-08-24T09:34:42;22.90;99.90
16825;DHT22;8529;48.108;-1.706;2023-08-24T09:37:13;22.90;99.90
16825;DHT22;8529;48.108;-1.706;2023-08-24T09:39:40;22.90;99.90
16825;DHT22;8529;48.108;-1.706;2023-08-24T09:42:08;22.80;99.90
16825;DHT22;8529;48.108;-1.706;2023-08-24T09:44:34;22.80;99.90
16825;DHT22;8529;48.108;-1.706;2023-08-24T09:47:09;22.80;99.90
16825;DHT22;8529;48.108;-1.706;2023-08-24T09:49:36;22.80;99.90
16825;DHT22;8529;48.108;-1.706;2023-08-24T09:52:06;22.80;99.90
16825;DHT22;8529;48.108;-1.706;2023-08-24T09:54:36;22.80;99.90
16825;DHT22;8529;48.108;-1.706;2023-08-24T09:57:06;22.70;99.90
16825;DHT22;8529;48.108;-1.706;2023-08-24T09:59:35;22.70;99.90
16825;DHT22;8529;48.108;-1.706;2023-08-24T10:02:14;22.70;99.90
16825;DHT22;8529;48.108;-1.706;2023-08-24T10:04:42;22.70;99.90
16825;DHT22;8529;48.108;-1.706;2023-08-24T10:07:11;22.80;99.90
16825;DHT22;8529;48.108;-1.706;2023-08-24T10:09:47;22.80;99.90
16825;DHT22;8529;48.108;-1.706;2023-08-24T10:12:20;22.80;99.90
16825;DHT22;8529;48.108;-1.706;2023-08-24T10:14:56;22.80;99.90
16825;DHT22;8529;48.108;-1.706;2023-08-24T10:17:27;22.80;99.90
16825;DHT22;8529;48.108;-1.706;2023-08-24T10:19:56;22.80;99.90
16825;DHT22;8529;48.108;-1.706;2023-08-24T10:22:23;22.80;99.90
16825;DHT22;8529;48.108;-1.706;2023-08-24T10:24:51;22.80;99.90
16825;DHT22;8529;48.108;-1.706;2023-08-24T10:27:21;22.90;99.90
16825;DHT22;8529;48.108;-1.706;2023-08-24T10:29:49;22.90;99.90
16825;DHT22;8529;48.108;-1.706;2023-08-24T10:32:16;22.90;99.90
16825;DHT22;8529;48.108;-1.706;2023-08-24T10:34:44;22.90;99.90
16825;DHT22;8529;48.108;-1.706;2023-08-24T10:37:11;23.00;99.90
16825;DHT22;8529;48.108;-1.706;2023-08-24T10:39:44;23.00;99.90
16825;DHT22;8529;48.108;-1.706;2023-08-24T10:42:11;23.00;99.90
16825;DHT22;8529;48.108;-1.706;2023-08-24T10:44:40;23.00;99.90
16825;DHT22;8529;48.108;-1.706;2023-08-24T10:47:14;23.00;99.90
16825;DHT22;8529;48.108;-1.706;2023-08-24T10:49:44;23.00;99.90
16825;DHT22;8529;48.108;-1.706;2023-08-24T10:52:18;23.10;99.90
16825;DHT22;8529;48.108;-1.706;2023-08-24T10:54:45;23.10;99.90
16825;DHT22;8529;48.108;-1.706;2023-08-24T10:57:22;23.10;99.90
16825;DHT22;8529;48.108;-1.706;2023-08-24T10:59:59;23.20;99.90
16825;DHT22;8529;48.108;-1.706;2023-08-24T11:02:26;23.30;99.90
16825;DHT22;8529;48.108;-1.706;2023-08-24T11:05:15;23.30;99.90
16825;DHT22;8529;48.108;-1.706;2023-08-24T11:07:52;23.30;99.90
16825;DHT22;8529;48.108;-1.706;2023-08-24T11:10:20;23.40;99.90
16825;DHT22;8529;48.108;-1.706;2023-08-24T11:13:11;23.40;99.90
16825;DHT22;8529;48.108;-1.706;2023-08-24T11:15:40;23.50;99.90
16825;DHT22;8529;48.108;-1.706;2023-08-24T11:18:15;23.60;99.90
16825;DHT22;8529;48.108;-1.706;2023-08-24T11:20:49;23.70;99.90
16825;DHT22;8529;48.108;-1.706;2023-08-24T11:23:17;23.70;99.90
16825;DHT22;8529;48.108;-1.706;2023-08-24T11:25:45;23.70;99.90
16825;DHT22;8529;48.108;-1.706;2023-08-24T11:28:16;23.70;99.90
16825;DHT22;8529;48.108;-1.706;2023-08-24T11:30:43;23.70;99.90
16825;DHT22;8529;48.108;-1.706;2023-08-24T11:33:11;23.70;99.90
16825;DHT22;8529;48.108;-1.706;2023-08-24T11:35:40;23.80;99.90
16825;DHT22;8529;48.108;-1.706;2023-08-24T11:38:08;23.80;99.90
16825;DHT22;8529;48.108;-1.706;2023-08-24T11:40:35;23.80;99.90
16825;DHT22;8529;48.108;-1.706;2023-08-24T11:43:03;23.90;99.90
16825;DHT22;8529;48.108;-1.706;2023-08-24T11:45:31;23.90;99.90
16825;DHT22;8529;48.108;-1.706;2023-08-24T11:47:59;23.90;99.90
16825;DHT22;8529;48.108;-1.706;2023-08-24T11:50:26;23.90;99.90
16825;DHT22;8529;48.108;-1.706;2023-08-24T11:52:54;23.90;99.90
16825;DHT22;8529;48.108;-1.706;2023-08-24T11:55:22;23.80;99.90
16825;DHT22;8529;48.108;-1.706;2023-08-24T11:57:49;23.90;99.90
16825;DHT22;8529;48.108;-1.706;2023-08-24T12:00:18;23.90;99.90
16825;DHT22;8529;48.108;-1.706;2023-08-24T12:02:46;23.90;99.90
16825;DHT22;8529;48.108;-1.706;2023-08-24T12:05:21;24.00;99.90
16825;DHT22;8529;48.108;-1.706;2023-08-24T12:07:48;24.00;99.90
16825;DHT22;8529;48.108;-1.706;2023-08-24T12:10:15;24.00;99.90
16825;DHT22;8529;48.108;-1.706;2023-08-24T12:12:44;24.10;99.90
16825;DHT22;8529;48.108;-1.706;2023-08-24T12:15:18;24.10;99.90
16825;DHT22;8529;48.108;-1.706;2023-08-24T12:17:46;24.20;99.90
16825;DHT22;8529;48.108;-1.706;2023-08-24T12:20:18;24.20;99.90
16825;DHT22;8529;48.108;-1.706;2023-08-24T12:22:50;24.30;99.90
16825;DHT22;8529;48.108;-1.706;2023-08-24T12:25:18;24.30;99.90
16825;DHT22;8529;48.108;-1.706;2023-08-24T12:27:46;24.40;99.90
16825;DHT22;8529;48.108;-1.706;2023-08-24T12:30:13;24.40;99.90
16825;DHT22;8529;48.108;-1.706;2023-08-24T12:32:44;24.30;99.90
16825;DHT22;8529;48.108;-1.706;2023-08-24T12:35:12;24.30;99.90
16825;DHT22;8529;48.108;-1.706;2023-08-24T12:37:38;24.20;99.90
16825;DHT22;8529;48.108;-1.706;2023-08-24T12:40:06;24.30;99.90
16825;DHT22;8529;48.108;-1.706;2023-08-24T12:42:34;24.40;99.90
16825;DHT22;8529;48.108;-1.706;2023-08-24T12:45:04;24.60;99.90
16825;DHT22;8529;48.108;-1.706;2023-08-24T12:47:31;24.70;99.90
16825;DHT22;8529;48.108;-1.706;2023-08-24T12:50:00;24.70;99.90
16825;DHT22;8529;48.108;-1.706;2023-08-24T12:52:27;24.60;99.90
16825;DHT22;8529;48.108;-1.706;2023-08-24T12:54:54;24.60;99.90
16825;DHT22;8529;48.108;-1.706;2023-08-24T12:57:21;24.60;99.90
16825;DHT22;8529;48.108;-1.706;2023-08-24T12:59:48;24.60;99.90
16825;DHT22;8529;48.108;-1.706;2023-08-24T13:02:16;24.50;99.90
16825;DHT22;8529;48.108;-1.706;2023-08-24T13:04:43;24.50;99.90
16825;DHT22;8529;48.108;-1.706;2023-08-24T13:07:10;24.50;99.90
16825;DHT22;8529;48.108;-1.706;2023-08-24T13:09:37;24.40;99.90
16825;DHT22;8529;48.108;-1.706;2023-08-24T13:12:04;24.40;99.90
16825;DHT22;8529;48.108;-1.706;2023-08-24T13:14:31;24.30;99.90
16825;DHT22;8529;48.108;-1.706;2023-08-24T13:16:58;24.40;99.90
16825;DHT22;8529;48.108;-1.706;2023-08-24T13:19:26;24.40;99.90
16825;DHT22;8529;48.108;-1.706;2023-08-24T13:21:53;24.50;99.90
16825;DHT22;8529;48.108;-1.706;2023-08-24T13:24:20;24.60;99.90
16825;DHT22;8529;48.108;-1.706;2023-08-24T13:26:47;24.80;99.90
16825;DHT22;8529;48.108;-1.706;2023-08-24T13:29:13;24.90;99.90
16825;DHT22;8529;48.108;-1.706;2023-08-24T13:31:40;24.90;99.90
16825;DHT22;8529;48.108;-1.706;2023-08-24T13:34:07;24.80;99.90
16825;DHT22;8529;48.108;-1.706;2023-08-24T13:36:35;24.80;99.90
16825;DHT22;8529;48.108;-1.706;2023-08-24T13:39:02;24.70;99.90
16825;DHT22;8529;48.108;-1.706;2023-08-24T13:41:30;24.70;99.90
16825;DHT22;8529;48.108;-1.706;2023-08-24T13:43:57;24.60;99.90
16825;DHT22;8529;48.108;-1.706;2023-08-24T13:46:24;24.70;99.90
16825;DHT22;8529;48.108;-1.706;2023-08-24T13:48:50;24.70;99.90
16825;DHT22;8529;48.108;-1.706;2023-08-24T13:51:17;24.60;99.90
16825;DHT22;8529;48.108;-1.706;2023-08-24T13:53:47;24.60;99.90
16825;DHT22;8529;48.108;-1.706;2023-08-24T13:56:14;24.70;99.90
16825;DHT22;8529;48.108;-1.706;2023-08-24T13:58:41;24.70;99.90
16825;DHT22;8529;48.108;-1.706;2023-08-24T14:01:08;24.70;99.90
16825;DHT22;8529;48.108;-1.706;2023-08-24T14:03:36;24.80;99.90
16825;DHT22;8529;48.108;-1.706;2023-08-24T14:06:03;24.70;99.90
16825;DHT22;8529;48.108;-1.706;2023-08-24T14:08:30;24.70;99.90
16825;DHT22;8529;48.108;-1.706;2023-08-24T14:10:58;24.80;99.90
16825;DHT22;8529;48.108;-1.706;2023-08-24T14:13:25;24.90;99.90
16825;DHT22;8529;48.108;-1.706;2023-08-24T14:15:52;24.90;99.90
16825;DHT22;8529;48.108;-1.706;2023-08-24T14:18:19;24.90;99.90
16825;DHT22;8529;48.108;-1.706;2023-08-24T14:20:46;24.80;99.90
16825;DHT22;8529;48.108;-1.706;2023-08-24T14:23:12;24.70;99.90
16825;DHT22;8529;48.108;-1.706;2023-08-24T14:25:39;24.70;99.90
16825;DHT22;8529;48.108;-1.706;2023-08-24T14:28:08;24.80;99.90
16825;DHT22;8529;48.108;-1.706;2023-08-24T14:30:34;24.80;99.90
16825;DHT22;8529;48.108;-1.706;2023-08-24T14:33:01;24.90;99.90
16825;DHT22;8529;48.108;-1.706;2023-08-24T14:35:28;24.90;99.90
16825;DHT22;8529;48.108;-1.706;2023-08-24T14:37:56;24.90;99.90
16825;DHT22;8529;48.108;-1.706;2023-08-24T14:40:22;24.90;99.90
16825;DHT22;8529;48.108;-1.706;2023-08-24T14:42:49;24.90;99.90
16825;DHT22;8529;48.108;-1.706;2023-08-24T14:45:18;24.90;99.90
16825;DHT22;8529;48.108;-1.706;2023-08-24T14:47:44;24.90;99.90
16825;DHT22;8529;48.108;-1.706;2023-08-24T14:50:12;25.00;99.90
16825;DHT22;8529;48.108;-1.706;2023-08-24T14:52:40;25.00;99.90
16825;DHT22;8529;48.108;-1.706;2023-08-24T14:55:07;25.00;99.90
16825;DHT22;8529;48.108;-1.706;2023-08-24T14:57:35;25.10;99.90
16825;DHT22;8529;48.108;-1.706;2023-08-24T15:00:02;25.10;99.90
16825;DHT22;8529;48.108;-1.706;2023-08-24T15:02:32;25.10;99.90
16825;DHT22;8529;48.108;-1.706;2023-08-24T15:04:59;25.00;99.90
16825;DHT22;8529;48.108;-1.706;2023-08-24T15:07:26;25.10;99.90
16825;DHT22;8529;48.108;-1.706;2023-08-24T15:09:53;25.10;99.90
16825;DHT22;8529;48.108;-1.706;2023-08-24T15:12:21;25.20;99.90
16825;DHT22;8529;48.108;-1.706;2023-08-24T15:14:58;25.20;99.90
16825;DHT22;8529;48.108;-1.706;2023-08-24T15:17:26;25.20;99.90
16825;DHT22;8529;48.108;-1.706;2023-08-24T15:19:54;25.20;99.90
16825;DHT22;8529;48.108;-1.706;2023-08-24T15:22:22;25.20;99.90
16825;DHT22;8529;48.108;-1.706;2023-08-24T15:24:49;25.20;99.90
16825;DHT22;8529;48.108;-1.706;2023-08-24T15:27:15;25.20;99.90
16825;DHT22;8529;48.108;-1.706;2023-08-24T15:29:44;25.30;99.90
16825;DHT22;8529;48.108;-1.706;2023-08-24T15:32:11;25.30;99.90
16825;DHT22;8529;48.108;-1.706;2023-08-24T15:34:39;25.30;99.90